createdAt,value
2018-02-11T00:00:52.789Z,3.40
2018-02-11T00:03:31.225Z,3.30
2018-02-11T00:06:09.717Z,3.40
2018-02-11T00:08:48.113Z,3.73
2018-02-11T00:11:26.678Z,4.00
2018-02-11T00:14:05.088Z,3.40
2018-02-11T00:16:44.131Z,3.50
2018-02-11T00:19:25.154Z,3.90
2018-02-11T00:22:03.621Z,4.13
2018-02-11T00:24:45.207Z,3.63
2018-02-11T00:27:24.724Z,3.40
2018-02-11T00:30:03.271Z,3.10
2018-02-11T00:32:42.717Z,3.20
2018-02-11T00:35:22.225Z,3.50
2018-02-11T00:38:06.784Z,3.47
2018-02-11T00:40:45.368Z,3.47
2018-02-11T00:43:23.772Z,3.20
2018-02-11T00:46:03.423Z,3.60
2018-02-11T00:48:42.157Z,4.13
2018-02-11T00:51:20.920Z,3.70
2018-02-11T00:54:00.571Z,4.67
2018-02-11T00:56:39.003Z,3.23
2018-02-11T00:59:17.616Z,2.97
2018-02-11T01:01:57.196Z,3.08
2018-02-11T01:04:35.945Z,2.97
2018-02-11T01:07:16.244Z,3.03
2018-02-11T01:09:54.854Z,3.42
2018-02-11T01:12:33.505Z,3.03
2018-02-11T01:15:11.927Z,3.03
2018-02-11T01:17:50.690Z,3.08
2018-02-11T01:20:31.309Z,2.92
2018-02-11T01:23:10.042Z,3.62
2018-02-11T01:25:47.698Z,8.45
2018-02-11T01:28:26.009Z,5.57
2018-02-11T01:31:04.634Z,6.60
2018-02-11T01:33:43.200Z,10.18
2018-02-11T01:36:22.859Z,8.23
2018-02-11T01:39:01.233Z,6.05
2018-02-11T01:41:40.763Z,5.20
2018-02-11T01:44:19.297Z,4.35
2018-02-11T01:46:58.551Z,4.90
2018-02-11T01:49:39.640Z,4.75
2018-02-11T01:52:18.788Z,4.82
2018-02-11T01:54:57.218Z,5.53
2018-02-11T01:57:35.661Z,4.72
2018-02-11T02:00:17.185Z,5.53
2018-02-11T02:02:55.686Z,5.97
2018-02-11T02:05:34.080Z,5.40
2018-02-11T02:08:12.495Z,5.18
2018-02-11T02:10:51.028Z,4.47
2018-02-11T02:13:29.532Z,4.50
2018-02-11T02:16:09.045Z,4.57
2018-02-11T02:18:47.494Z,4.00
2018-02-11T02:21:26.899Z,5.47
2018-02-11T02:24:09.737Z,5.87
2018-02-11T02:26:48.125Z,4.28
2018-02-11T02:29:26.672Z,5.72
2018-02-11T02:32:06.218Z,6.12
2018-02-11T02:34:45.847Z,7.87
2018-02-11T02:37:25.390Z,6.00
2018-02-11T02:40:04.722Z,4.55
2018-02-11T02:42:44.169Z,4.90
2018-02-11T02:45:23.279Z,5.22
2018-02-11T02:50:48.089Z,5.47
2018-02-11T02:53:28.513Z,5.80
2018-02-11T02:56:07.992Z,9.98
2018-02-11T02:58:46.692Z,11.73
2018-02-11T03:01:26.435Z,13.88
2018-02-11T03:04:04.900Z,19.33
2018-02-11T03:06:45.609Z,15.38
2018-02-11T03:09:24.527Z,14.73
2018-02-11T03:12:03.250Z,21.40
2018-02-11T03:14:41.804Z,23.70
2018-02-11T03:17:23.396Z,28.75
2018-02-11T03:20:03.013Z,24.92
2018-02-11T03:22:42.834Z,16.62
2018-02-11T03:25:21.333Z,13.93
2018-02-11T03:28:00.029Z,15.15
2018-02-11T03:30:39.345Z,19.02
2018-02-11T03:33:17.396Z,15.90
2018-02-11T03:35:55.978Z,19.40
2018-02-11T03:38:34.962Z,17.90
2018-02-11T03:41:13.847Z,18.40
2018-02-11T03:43:52.756Z,21.15
2018-02-11T03:46:30.283Z,19.25
2018-02-11T03:49:10.860Z,21.95
2018-02-11T03:51:49.493Z,19.08
2018-02-11T03:54:29.093Z,21.85
2018-02-11T03:57:06.911Z,16.48
2018-02-11T03:59:45.591Z,16.50
2018-02-11T04:02:24.549Z,16.17
2018-02-11T04:05:03.019Z,31.50
2018-02-11T04:10:23.400Z,31.37
2018-02-11T04:13:02.440Z,22.77
2018-02-11T04:15:43.002Z,14.13
2018-02-11T04:18:22.136Z,13.90
2018-02-11T04:21:01.974Z,17.37
2018-02-11T04:23:42.723Z,10.80
2018-02-11T04:26:23.292Z,15.98
2018-02-11T04:29:01.768Z,15.15
2018-02-11T04:31:40.551Z,17.98
2018-02-11T04:34:20.093Z,14.63
2018-02-11T04:37:02.206Z,20.50
2018-02-11T04:39:40.456Z,17.25
2018-02-11T04:42:18.875Z,19.60
2018-02-11T04:44:59.440Z,16.70
2018-02-11T04:47:38.011Z,20.23
2018-02-11T04:50:16.398Z,20.75
2018-02-11T04:52:54.754Z,16.25
2018-02-11T04:55:33.395Z,12.90
2018-02-11T04:58:13.003Z,21.60
2018-02-11T05:00:53.137Z,28.50
2018-02-11T05:03:33.419Z,29.98
2018-02-11T05:06:11.987Z,28.90
2018-02-11T05:08:50.850Z,24.08
2018-02-11T05:11:29.462Z,22.73
2018-02-11T05:14:08.150Z,24.60
2018-02-11T05:16:46.930Z,28.98
2018-02-11T05:19:27.458Z,29.70
2018-02-11T05:22:07.021Z,31.35
2018-02-11T05:24:44.680Z,30.40
2018-02-11T05:30:06.354Z,34.17
2018-02-11T05:32:45.290Z,38.70
2018-02-11T05:35:27.062Z,34.50
2018-02-11T05:38:08.772Z,30.52
2018-02-11T05:40:47.493Z,22.80
2018-02-11T05:43:26.003Z,25.33
2018-02-11T05:46:04.588Z,28.25
2018-02-11T05:48:44.118Z,21.67
2018-02-11T05:51:23.794Z,18.98
2018-02-11T05:54:02.456Z,28.15
2018-02-11T05:56:45.176Z,23.35
2018-02-11T05:59:23.828Z,33.28
2018-02-11T06:02:11.157Z,29.48
2018-02-11T06:04:50.687Z,22.27
2018-02-11T06:07:30.211Z,19.70
2018-02-11T06:10:09.011Z,16.35
2018-02-11T06:12:46.052Z,17.02
2018-02-11T06:15:25.338Z,19.33
2018-02-11T06:18:05.520Z,19.48
2018-02-11T06:20:44.043Z,21.42
2018-02-11T06:23:22.577Z,19.02
2018-02-11T06:26:01.360Z,18.08
2018-02-11T06:28:39.882Z,17.37
2018-02-11T06:31:18.496Z,17.23
2018-02-11T06:33:57.282Z,21.12
2018-02-11T06:36:35.908Z,19.48
2018-02-11T06:39:16.569Z,21.58
2018-02-11T06:41:57.233Z,18.23
2018-02-11T06:44:37.027Z,21.20
2018-02-11T06:47:16.569Z,15.90
2018-02-11T06:49:55.370Z,18.30
2018-02-11T06:52:36.118Z,19.33
2018-02-11T06:55:17.625Z,19.55
2018-02-11T06:57:56.302Z,17.08
2018-02-11T07:00:34.748Z,18.05
2018-02-11T07:03:14.315Z,17.90
2018-02-11T07:05:53.782Z,19.48
2018-02-11T07:08:33.555Z,15.82
2018-02-11T07:11:13.246Z,16.37
2018-02-11T07:13:51.814Z,15.30
2018-02-11T07:16:35.545Z,15.70
2018-02-11T07:19:14.149Z,14.43
2018-02-11T07:21:58.778Z,14.82
2018-02-11T07:24:39.188Z,14.02
2018-02-11T07:27:18.838Z,14.82
2018-02-11T07:30:00.456Z,14.65
2018-02-11T07:32:41.129Z,15.27
2018-02-11T07:35:19.624Z,15.05
2018-02-11T07:38:02.585Z,13.75
2018-02-11T07:40:42.103Z,13.43
2018-02-11T07:43:21.561Z,13.80
2018-02-11T07:46:01.245Z,13.62
2018-02-11T07:48:40.650Z,15.10
2018-02-11T07:51:21.183Z,18.65
2018-02-11T07:53:59.752Z,16.98
2018-02-11T07:56:40.367Z,15.60
2018-02-11T07:59:21.314Z,16.95
2018-02-11T08:02:02.374Z,13.62
2018-02-11T08:04:43.041Z,15.77
2018-02-11T08:07:22.656Z,25.12
2018-02-11T08:10:11.162Z,19.98
2018-02-11T08:12:49.704Z,22.25
2018-02-11T08:15:28.342Z,21.25
2018-02-11T08:18:08.967Z,21.75
2018-02-11T08:20:59.658Z,18.75
2018-02-11T08:23:37.030Z,17.48
2018-02-11T08:26:16.801Z,15.70
2018-02-11T08:28:56.109Z,20.90
2018-02-11T08:31:34.658Z,19.35
2018-02-11T08:34:13.454Z,19.27
2018-02-11T08:39:36.324Z,16.15
2018-02-11T08:42:14.991Z,17.35
2018-02-11T08:44:58.552Z,18.37
2018-02-11T08:47:39.161Z,16.58
2018-02-11T08:50:18.153Z,16.37
2018-02-11T08:53:00.698Z,14.63
2018-02-11T08:55:39.529Z,15.48
2018-02-11T08:58:21.264Z,14.93
2018-02-11T09:00:59.842Z,15.93
2018-02-11T09:03:38.481Z,16.30
2018-02-11T09:06:19.150Z,14.52
2018-02-11T09:08:57.834Z,15.73
2018-02-11T09:11:36.466Z,14.85
2018-02-11T09:14:16.284Z,15.65
2018-02-11T09:16:54.866Z,14.95
2018-02-11T09:19:36.034Z,16.05
2018-02-11T09:22:17.001Z,14.13
2018-02-11T09:24:57.011Z,15.38
2018-02-11T09:27:35.524Z,14.48
2018-02-11T09:30:14.174Z,15.30
2018-02-11T09:32:54.959Z,13.20
2018-02-11T09:35:35.500Z,12.20
2018-02-11T09:38:14.216Z,15.13
2018-02-11T09:40:52.958Z,14.57
2018-02-11T09:43:34.749Z,14.60
2018-02-11T09:46:13.249Z,14.60
2018-02-11T09:48:51.847Z,14.87
2018-02-11T09:51:30.383Z,13.95
2018-02-11T09:54:11.904Z,14.82
2018-02-11T09:56:50.374Z,15.15
2018-02-11T09:59:31.976Z,13.98
2018-02-11T10:02:10.629Z,13.95
2018-02-11T10:04:50.815Z,15.85
2018-02-11T10:07:30.985Z,15.00
2018-02-11T10:10:09.496Z,14.32
2018-02-11T10:12:48.064Z,15.15
2018-02-11T10:15:29.838Z,15.05
2018-02-11T10:18:09.548Z,15.63
2018-02-11T10:20:47.269Z,16.92
2018-02-11T10:23:27.031Z,15.07
2018-02-11T10:26:06.639Z,13.82
2018-02-11T10:28:46.276Z,15.55
2018-02-11T10:31:24.856Z,15.32
2018-02-11T10:34:03.519Z,15.95
2018-02-11T10:36:42.129Z,15.20
2018-02-11T10:39:20.883Z,14.90
2018-02-11T10:42:00.588Z,15.90
2018-02-11T10:44:40.021Z,14.85
2018-02-11T10:47:18.515Z,15.35
2018-02-11T10:49:59.145Z,17.77
2018-02-11T10:52:36.980Z,17.75
2018-02-11T10:55:15.424Z,20.25
2018-02-11T10:57:53.976Z,21.50
2018-02-11T11:00:33.500Z,20.83
2018-02-11T11:03:12.187Z,22.02
2018-02-11T11:05:50.794Z,20.48
2018-02-11T11:08:32.549Z,21.90
2018-02-11T11:11:11.104Z,21.12
2018-02-11T11:13:53.300Z,21.30
2018-02-11T11:16:32.488Z,24.10
2018-02-11T11:19:11.056Z,25.90
2018-02-11T11:21:49.630Z,28.98
2018-02-11T11:24:31.209Z,27.08
2018-02-11T11:29:50.357Z,24.27
2018-02-11T11:32:29.944Z,26.02
2018-02-11T11:35:07.813Z,21.60
2018-02-11T11:37:46.310Z,22.25
2018-02-11T11:40:27.643Z,23.85
2018-02-11T11:43:10.108Z,23.27
2018-02-11T11:45:51.522Z,27.50
2018-02-11T11:48:30.367Z,27.33
2018-02-11T11:51:08.733Z,26.77
2018-02-11T11:53:47.315Z,25.25
2018-02-11T11:56:27.825Z,25.15
2018-02-11T11:59:06.428Z,27.35
2018-02-11T12:01:51.140Z,25.15
2018-02-11T12:04:29.769Z,24.25
2018-02-11T12:07:09.189Z,26.10
2018-02-11T12:09:48.815Z,23.67
2018-02-11T12:12:26.964Z,23.75
2018-02-11T12:15:05.400Z,23.02
2018-02-11T12:17:45.422Z,22.87
2018-02-11T12:20:26.435Z,22.77
2018-02-11T12:23:07.908Z,24.25
2018-02-11T12:25:47.545Z,22.23
2018-02-11T12:28:27.284Z,19.10
2018-02-11T12:31:05.883Z,17.25
2018-02-11T12:33:44.576Z,18.40
2018-02-11T12:36:24.394Z,20.15
2018-02-11T12:39:03.989Z,17.80
2018-02-11T12:41:42.539Z,16.90
2018-02-11T12:44:26.087Z,15.13
2018-02-11T12:47:10.499Z,17.62
2018-02-11T12:49:50.069Z,15.60
2018-02-11T12:52:31.844Z,15.55
2018-02-11T12:55:13.417Z,13.00
2018-02-11T12:57:52.871Z,13.10
2018-02-11T13:00:32.637Z,13.35
2018-02-11T13:03:11.275Z,13.82
2018-02-11T13:05:49.895Z,14.87
2018-02-11T13:08:29.608Z,14.10
2018-02-11T13:11:09.985Z,15.15
2018-02-11T13:13:48.594Z,14.30
2018-02-11T13:16:28.330Z,13.23
2018-02-11T13:19:08.803Z,13.07
2018-02-11T13:21:49.430Z,13.70
2018-02-11T13:24:28.987Z,13.57
2018-02-11T13:27:11.681Z,14.07
2018-02-11T13:29:51.196Z,13.80
2018-02-11T13:32:31.907Z,14.00
2018-02-11T13:35:15.476Z,12.90
2018-02-11T13:37:55.143Z,14.65
2018-02-11T13:40:33.846Z,12.98
2018-02-11T13:43:12.363Z,15.40
2018-02-11T13:45:53.352Z,14.50
2018-02-11T13:48:31.539Z,16.00
2018-02-11T13:51:11.359Z,15.45
2018-02-11T13:53:49.935Z,15.30
2018-02-11T13:56:28.506Z,16.55
2018-02-11T13:59:07.045Z,17.05
2018-02-11T14:01:48.753Z,18.30
2018-02-11T14:04:27.363Z,17.77
2018-02-11T14:07:08.205Z,17.10
2018-02-11T14:09:47.833Z,19.25
2018-02-11T14:12:27.084Z,15.30
2018-02-11T14:15:07.474Z,15.23
2018-02-11T14:17:45.671Z,16.20
2018-02-11T14:20:26.375Z,23.40
2018-02-11T14:23:07.032Z,24.02
2018-02-11T14:25:44.237Z,26.08
2018-02-11T14:28:25.174Z,20.50
2018-02-11T14:31:03.668Z,17.83
2018-02-11T14:33:42.121Z,22.13
2018-02-11T14:36:21.703Z,19.75
2018-02-11T14:39:02.222Z,20.58
2018-02-11T14:41:41.237Z,19.87
2018-02-11T14:44:19.592Z,19.40
2018-02-11T14:46:58.361Z,18.23
2018-02-11T14:52:22.484Z,18.70
2018-02-11T14:55:01.776Z,18.12
2018-02-11T14:57:39.840Z,20.40
2018-02-11T15:00:19.601Z,17.65
2018-02-11T15:03:03.350Z,17.98
2018-02-11T15:05:41.964Z,16.65
2018-02-11T15:08:21.649Z,19.27
2018-02-11T15:11:01.105Z,20.88
2018-02-11T15:13:39.776Z,19.92
2018-02-11T15:16:18.479Z,21.75
2018-02-11T15:18:57.177Z,21.83
2018-02-11T15:21:35.739Z,22.60
2018-02-11T15:24:17.283Z,20.88
2018-02-11T15:26:55.847Z,22.45
2018-02-11T15:29:35.284Z,21.62
2018-02-11T15:32:14.766Z,18.23
2018-02-11T15:34:57.286Z,17.73
2018-02-11T15:37:38.928Z,19.05
2018-02-11T15:40:16.051Z,17.92
2018-02-11T15:42:55.022Z,18.02
2018-02-11T15:45:33.531Z,19.00
2018-02-11T15:48:14.193Z,17.35
2018-02-11T15:50:53.970Z,18.20
2018-02-11T15:53:34.647Z,19.30
2018-02-11T15:56:14.242Z,16.87
2018-02-11T16:01:35.168Z,17.73
2018-02-11T16:04:13.609Z,77.65
2018-02-11T16:06:53.283Z,31.65
2018-02-11T16:09:33.293Z,44.15
2018-02-11T16:12:11.628Z,39.22
2018-02-11T16:14:51.106Z,26.40
2018-02-11T16:17:31.530Z,32.63
2018-02-11T16:20:11.028Z,27.65
2018-02-11T16:22:51.561Z,21.67
2018-02-11T16:25:30.185Z,20.35
2018-02-11T16:28:09.750Z,25.65
2018-02-11T16:30:51.242Z,22.20
2018-02-11T16:33:31.358Z,17.85
2018-02-11T16:36:11.553Z,19.62
2018-02-11T16:38:52.676Z,17.98
2018-02-11T16:41:31.654Z,19.15
2018-02-11T16:44:13.323Z,19.58
2018-02-11T16:46:52.991Z,20.85
2018-02-11T16:49:32.615Z,19.50
2018-02-11T16:52:12.229Z,18.40
2018-02-11T16:54:51.477Z,21.00
2018-02-11T16:57:30.298Z,19.48
2018-02-11T17:00:08.810Z,20.12
2018-02-11T17:02:48.482Z,20.65
2018-02-11T17:05:29.115Z,17.23
2018-02-11T17:08:08.717Z,15.20
2018-02-11T17:10:51.208Z,16.65
2018-02-11T17:13:29.793Z,16.20
2018-02-11T17:16:09.586Z,16.50
2018-02-11T17:18:50.015Z,15.52
2018-02-11T17:21:28.736Z,15.48
2018-02-11T17:24:06.358Z,14.43
2018-02-11T17:26:46.963Z,15.50
2018-02-11T17:29:26.505Z,15.00
2018-02-11T17:32:08.198Z,14.75
2018-02-11T17:34:46.853Z,14.52
2018-02-11T17:37:25.304Z,14.70
2018-02-11T17:40:04.996Z,16.48
2018-02-11T17:42:43.589Z,15.57
2018-02-11T17:45:23.005Z,16.70
2018-02-11T17:48:01.642Z,13.85
2018-02-11T17:50:41.185Z,14.02
2018-02-11T17:53:19.626Z,14.75
2018-02-11T17:55:57.191Z,16.23
2018-02-11T17:58:35.928Z,14.95
2018-02-11T18:01:16.516Z,16.73
2018-02-11T18:03:55.095Z,18.30
2018-02-11T18:06:34.630Z,15.50
2018-02-11T18:09:14.103Z,15.85
2018-02-11T18:11:52.747Z,16.70
2018-02-11T18:14:33.312Z,16.00
2018-02-11T18:17:12.192Z,15.07
2018-02-11T18:22:32.507Z,16.08
2018-02-11T18:25:11.589Z,16.85
2018-02-11T18:27:49.944Z,16.70
2018-02-11T18:30:32.592Z,18.20
2018-02-11T18:33:10.053Z,16.92
2018-02-11T18:35:48.656Z,17.65
2018-02-11T18:38:27.152Z,18.00
2018-02-11T18:41:10.005Z,18.05
2018-02-11T18:43:50.473Z,17.62
2018-02-11T18:46:29.099Z,17.55
2018-02-11T18:49:07.550Z,16.83
2018-02-11T18:51:46.300Z,17.97
2018-02-11T18:54:25.174Z,17.50
2018-02-11T18:57:05.558Z,16.33
2018-02-11T18:59:46.176Z,17.77
2018-02-11T19:02:24.669Z,17.13
2018-02-11T19:05:02.212Z,17.20
2018-02-11T19:07:47.667Z,17.03
2018-02-11T19:10:30.348Z,15.53
2018-02-11T19:13:07.872Z,16.60
2018-02-11T19:15:46.372Z,17.33
2018-02-11T19:18:25.038Z,16.57
2018-02-11T19:21:05.494Z,16.13
2018-02-11T19:23:43.942Z,17.47
2018-02-11T19:26:22.530Z,15.40
2018-02-11T19:29:01.193Z,14.20
2018-02-11T19:31:40.002Z,15.10
2018-02-11T19:34:18.786Z,14.60
2018-02-11T19:36:57.404Z,15.87
2018-02-11T19:39:36.210Z,14.90
2018-02-11T19:42:16.121Z,14.77
2018-02-11T19:44:55.727Z,14.13
2018-02-11T19:47:35.785Z,12.47
2018-02-11T19:50:15.121Z,13.47
2018-02-11T19:52:55.676Z,12.43
2018-02-11T19:55:35.132Z,13.77
2018-02-11T19:58:13.814Z,13.17
2018-02-11T20:00:52.374Z,15.10
2018-02-11T20:03:37.088Z,14.93
2018-02-11T20:06:15.849Z,15.10
2018-02-11T20:08:53.523Z,15.47
2018-02-11T20:11:35.209Z,16.43
2018-02-11T20:14:13.640Z,15.93
2018-02-11T20:16:52.240Z,15.60
2018-02-11T20:19:30.662Z,11.80
2018-02-11T20:22:10.449Z,12.37
2018-02-11T20:24:49.150Z,13.53
2018-02-11T20:27:31.905Z,12.90
2018-02-11T20:30:12.499Z,9.37
2018-02-11T20:32:53.166Z,11.43
2018-02-11T20:35:31.983Z,12.27
2018-02-11T20:38:10.369Z,11.90
2018-02-11T20:40:48.896Z,11.30
2018-02-11T20:43:26.351Z,12.30
2018-02-11T20:46:04.854Z,13.60
2018-02-11T20:48:43.530Z,11.63
2018-02-11T20:51:23.063Z,11.10
2018-02-11T20:54:02.538Z,11.90
2018-02-11T20:56:40.192Z,10.63
2018-02-11T20:59:18.460Z,9.77
2018-02-11T21:01:56.918Z,9.17
2018-02-11T21:04:36.487Z,8.90
2018-02-11T21:07:14.907Z,7.80
2018-02-11T21:09:53.385Z,7.27
2018-02-11T21:12:36.005Z,5.20
2018-02-11T21:15:16.763Z,5.30
2018-02-11T21:17:57.190Z,5.57
2018-02-11T21:20:35.754Z,6.30
2018-02-11T21:23:14.127Z,5.30
2018-02-11T21:25:52.582Z,5.57
2018-02-11T21:28:31.078Z,6.80
2018-02-11T21:31:11.597Z,7.10
2018-02-11T21:33:50.171Z,6.53
2018-02-11T21:36:28.569Z,5.27
2018-02-11T21:39:09.127Z,6.60
2018-02-11T21:41:52.684Z,7.00
2018-02-11T21:44:34.379Z,4.57
2018-02-11T21:49:54.456Z,3.60
2018-02-11T21:52:34.154Z,2.20
2018-02-11T21:55:14.655Z,3.20
2018-02-11T21:57:53.192Z,2.80
2018-02-11T22:00:30.891Z,2.87
2018-02-11T22:03:09.307Z,3.40
2018-02-11T22:05:51.857Z,3.37
2018-02-11T22:08:32.436Z,2.90
2018-02-11T22:11:11.884Z,3.53
2018-02-11T22:13:52.354Z,3.13
2018-02-11T22:16:32.069Z,2.73
2018-02-11T22:19:10.442Z,3.07
2018-02-11T22:21:50.210Z,3.40
2018-02-11T22:24:28.531Z,3.90
2018-02-11T22:27:08.996Z,3.60
2018-02-11T22:29:47.414Z,3.73
2018-02-11T22:32:25.917Z,4.20
2018-02-11T22:35:04.455Z,4.60
2018-02-11T22:37:42.951Z,4.03
2018-02-11T22:40:21.419Z,3.90
2018-02-11T22:42:59.767Z,4.40
2018-02-11T22:45:38.162Z,6.20
2018-02-11T22:48:16.648Z,5.73
2018-02-11T22:50:57.534Z,5.70
2018-02-11T22:53:35.903Z,7.00
2018-02-11T22:56:14.539Z,7.97
2018-02-11T22:58:55.113Z,7.63
2018-02-11T23:01:33.521Z,6.03
2018-02-11T23:04:12.968Z,6.20
2018-02-11T23:06:52.211Z,6.73
2018-02-11T23:09:33.216Z,7.63
2018-02-11T23:12:11.656Z,8.30
2018-02-11T23:14:53.234Z,7.93
2018-02-11T23:17:31.953Z,9.57
2018-02-11T23:20:12.975Z,8.87
2018-02-11T23:22:52.175Z,8.50
2018-02-11T23:25:30.638Z,6.80
2018-02-11T23:28:13.226Z,6.50
2018-02-11T23:30:52.836Z,6.37
2018-02-11T23:33:31.288Z,4.73
2018-02-11T23:36:11.941Z,4.70
2018-02-11T23:38:55.579Z,4.50
2018-02-11T23:41:36.963Z,4.53
2018-02-11T23:44:17.377Z,4.43
2018-02-11T23:46:55.923Z,4.53
2018-02-11T23:49:35.408Z,4.40
2018-02-11T23:52:14.078Z,4.37
2018-02-11T23:54:52.480Z,3.83
2018-02-11T23:57:35.079Z,3.80
